Aeroporto :
LOGIN :

Iscrizione | Disclaimer

   EN    FR    IT 

 










Sommario :    VFR   VFR Marginale   IFR   IFR Intensivo   IFR Molto Intensivo
Visibilità : 
Base nubi : 
>= 8 km
>= 3000ft
5 / 8 km
1000 / 3000 ft
1500m / 5 km
500 / 1000 ft
800 / 1500m
200 / 500 ft
< 800m
< 200 ft
Simboli :   Temporali  Nebbia  Neve Forte  Precipitazioni Forti  Vento > 20 kt
SIGMETs :   Varie  Temporali  Ghiacco  Turbolenza  Onda orograficha  Ceneri Vulcaniche






- Altitudine del aeroporto : 616 ft
- Codice IATA : PUF


LFBP - Pau

ULTIMO METAR :
  • 221800Z AUTO 25002KT 9999 -DZ SCT066 BKN078 08/06 Q1020 TEMPO 4000 -RA BKN007

METARs OBSOLETI :
  • 221730Z AUTO 36003KT 9999 -RA SCT022 SCT028 BKN078 08/06 Q1021 TEMPO 4000 -RA BKN007
  • 221700Z AUTO 27002KT 9999 -RA BKN022 OVC029 08/06 Q1021 TEMPO 3000 RA BKN010
  • 221630Z AUTO 35003KT 9999 OVC022 09/06 Q1021 TEMPO 3000 RA BKN010
  • 221600Z AUTO 36002KT 9999 OVC022 09/06 Q1021 TEMPO 3000 RA BKN010
  • 221530Z AUTO 01003KT 9999 BKN023 BKN028 BKN100 09/06 Q1021 TEMPO 3000 RA BKN010

TAF TAF LFBP
Valido dal 22 a 18 ore il 23 a 18 ore UTC


221700Z 2218/2318 VRB03KT 9999 BKN020
PROB30
TEMPO 2218/2221 4000 -RA BKN007
TEMPO 2221/2305 BKN006
PROB40
TEMPO 2305/2311 3000 RA BR BKN005
BECMG 2313/2315 CAVOK



MetMap, La meteo Aeronautica in un colpo d'occhio ! - Copyright ORBIFLY Dicembre 2007 - Disclaimer

ORBIFLY MET'MAP TEAM :

Programmazione e sviluppo : Alexandra Zaïnal
Concezione : Baudouin d'Aumeries
Aiuto per la programmazione : Marc-Olivier Méhu
Supporto tecnico e logistico : Manuel Goepfert
Aiuto per la traduzione : Arnaldo La Scala

Contatto : metmap@orbifly.com




FONTI E CREDITI :

   NOAA